Walters, Louisiana
Current Conditions -  °F | °C
As of 9:09 AM on Friday 19 Dec 2014 (Local Time) from KESF Reporting Station
Light Rain Light Rain  
Wind Chill: 51°   Ceiling: 500
Heat Index: 51°   Visibility: 10mi
Dew Point: 49°   Wind: 3mph
Humidity: 92%   Direction: NA
Pressure: 30.15"   Gusts: NA
Location:  31.5028°N, 91.9028°W
Report Text: KESF 191509Z AUTO VRB03KT 10SM -RA BKN005 BKN009 OVC016 11/09 A3015 RMK AO2 P0002 T01060094
Loading
Personal Weather Stations






























Interactive Weather Map New forecast layout! Learn more

10-Day Weather Forecast

Advertisements
Track Severe Weather on mobile